createdAt,value
2023-04-29T00:01:45.365Z,49412.59
2023-04-29T00:06:50.897Z,49430.56
2023-04-29T00:11:55.228Z,49442.56
2023-04-29T00:17:00.111Z,49404.59
2023-04-29T00:22:06.127Z,49422.59
2023-04-29T00:27:12.120Z,49446.56
2023-04-29T00:32:16.622Z,49452.56
2023-04-29T00:37:22.453Z,49436.56
2023-04-29T00:42:27.413Z,49486.53
2023-04-29T00:47:31.653Z,49460.56
2023-04-29T00:52:39.565Z,49400.59
2023-04-29T00:57:43.922Z,49476.53
2023-04-29T01:02:49.593Z,49446.56
2023-04-29T01:08:12.924Z,49480.53
2023-04-29T01:13:25.912Z,49494.53
2023-04-29T01:18:36.258Z,49492.53
2023-04-29T01:23:41.772Z,49500.53
2023-04-29T01:28:52.492Z,49506.53
2023-04-29T01:34:07.506Z,49466.56
2023-04-29T01:39:18.169Z,49468.56
2023-04-29T01:44:30.415Z,49450.56
2023-04-29T01:49:38.530Z,49422.59
2023-04-29T01:54:44.656Z,49462.56
2023-04-29T01:59:48.987Z,49470.56
2023-04-29T02:05:13.080Z,49460.56
2023-04-29T02:10:23.895Z,49414.59
2023-04-29T02:15:36.807Z,49430.56
2023-04-29T02:20:41.457Z,49458.56
2023-04-29T02:25:47.171Z,49450.56
2023-04-29T02:30:51.988Z,49438.56
2023-04-29T02:35:56.201Z,49446.56
2023-04-29T02:41:01.824Z,49462.56
2023-04-29T02:46:06.116Z,49464.56
2023-04-29T02:51:10.815Z,49458.56
2023-04-29T02:56:16.598Z,49502.53
2023-04-29T03:01:20.844Z,49456.56
2023-04-29T03:06:25.304Z,49510.53
2023-04-29T03:11:30.837Z,49472.56
2023-04-29T03:16:35.119Z,49466.56
2023-04-29T03:21:39.358Z,49498.53
2023-04-29T03:26:45.541Z,49512.53
2023-04-29T03:31:50.086Z,49526.50
2023-04-29T03:36:54.871Z,49502.53
2023-04-29T03:42:01.690Z,49514.53
2023-04-29T03:47:06.887Z,49554.50
2023-04-29T03:52:12.754Z,49538.50
2023-04-29T03:57:18.946Z,49514.53
2023-04-29T04:02:23.544Z,49518.53
2023-04-29T04:07:28.362Z,49522.53
2023-04-29T04:12:54.116Z,49550.50
2023-04-29T04:17:58.531Z,49490.53
2023-04-29T04:23:03.574Z,49534.50
2023-04-29T04:28:09.724Z,49504.53
2023-04-29T04:33:34.716Z,49574.47
2023-04-29T04:38:39.729Z,49522.53
2023-04-29T04:43:49.701Z,49566.50
2023-04-29T04:49:09.430Z,49554.50
2023-04-29T04:54:19.526Z,49574.47
2023-04-29T04:59:28.735Z,49554.50
2023-04-29T05:04:33.216Z,49600.47
2023-04-29T05:09:37.525Z,49588.47
2023-04-29T05:14:43.185Z,49564.50
2023-04-29T05:19:47.615Z,49558.50
2023-04-29T05:24:53.116Z,49598.47
2023-04-29T05:30:00.374Z,49590.47
2023-04-29T05:35:07.289Z,49614.47
2023-04-29T05:40:13.238Z,49658.44
2023-04-29T05:45:19.503Z,49664.44
2023-04-29T05:50:23.646Z,49676.41
2023-04-29T05:55:27.971Z,49636.44
2023-04-29T06:00:33.880Z,49672.44
2023-04-29T06:05:49.369Z,49730.38
2023-04-29T06:11:10.578Z,49698.41
2023-04-29T06:16:16.205Z,49744.38
2023-04-29T06:21:20.559Z,49766.38
2023-04-29T06:26:24.785Z,49738.38
2023-04-29T06:31:30.643Z,49812.34
2023-04-29T06:36:39.841Z,49836.31
2023-04-29T06:42:09.144Z,49888.31
2023-04-29T06:47:20.987Z,49870.31
2023-04-29T06:52:32.273Z,49874.31
2023-04-29T06:57:37.010Z,49864.31
2023-04-29T07:02:43.505Z,49914.28
2023-04-29T07:07:48.082Z,49882.31
2023-04-29T07:12:52.501Z,49938.28
2023-04-29T07:17:58.359Z,49922.28
2023-04-29T07:23:03.076Z,49942.28
2023-04-29T07:28:08.587Z,49966.25
2023-04-29T07:33:14.325Z,50014.22
2023-04-29T07:38:18.434Z,49992.25
2023-04-29T07:43:23.349Z,50042.22
2023-04-29T07:48:29.071Z,50074.19
2023-04-29T07:53:33.720Z,50098.19
2023-04-29T07:58:37.943Z,50110.19
2023-04-29T08:03:43.825Z,50192.16
2023-04-29T08:08:50.030Z,50266.13
2023-04-29T08:13:58.055Z,50292.09
2023-04-29T08:19:03.599Z,50272.09
2023-04-29T08:24:08.342Z,50374.06
2023-04-29T08:29:12.525Z,50358.06
2023-04-29T08:34:18.102Z,50464.03
2023-04-29T08:39:22.309Z,50526.00
2023-04-29T08:44:28.104Z,50711.94
2023-04-29T08:49:34.874Z,50749.91
2023-04-29T08:54:39.077Z,50761.91
2023-04-29T08:59:43.858Z,50735.94
2023-04-29T09:04:59.542Z,50837.91
2023-04-29T09:10:06.373Z,50597.97
2023-04-29T09:15:11.646Z,50538.00
2023-04-29T09:20:31.439Z,50627.97
2023-04-29T09:25:36.643Z,50663.94
2023-04-29T09:30:48.365Z,50741.94
2023-04-29T09:35:54.334Z,50434.03
2023-04-29T09:40:59.923Z,50430.03
2023-04-29T09:46:06.739Z,50396.06
2023-04-29T09:51:14.270Z,50394.06
2023-04-29T09:56:20.305Z,50374.06
2023-04-29T10:01:26.607Z,50322.09
2023-04-29T10:06:33.553Z,50266.13
2023-04-29T10:11:38.907Z,50264.13
2023-04-29T10:23:52.346Z,50294.09
2023-04-29T10:28:58.162Z,50230.13
2023-04-29T10:34:02.306Z,50234.13
2023-04-29T10:39:14.429Z,50234.13
2023-04-29T10:44:20.220Z,50230.13
2023-04-29T13:04:13.441Z,51001.84
2023-04-29T13:09:19.096Z,50915.88
2023-04-29T13:14:23.866Z,50707.94
2023-04-29T13:25:52.169Z,50737.94
2023-04-29T13:31:00.250Z,50767.91
2023-04-29T13:59:52.382Z,50685.94
2023-04-29T14:10:49.556Z,50595.97
2023-04-29T14:15:56.946Z,50577.97
2023-04-29T14:21:55.774Z,50571.97
2023-04-29T14:33:28.100Z,50631.97
2023-04-29T14:38:32.451Z,50579.97
2023-04-29T14:49:22.464Z,50723.94
2023-04-29T14:54:27.371Z,50865.88
2023-04-29T14:59:32.344Z,51079.81
2023-04-29T15:10:25.200Z,51241.78
2023-04-29T15:15:29.492Z,51069.81
2023-04-29T15:28:06.665Z,51057.84
2023-04-29T15:33:11.011Z,50945.84
2023-04-29T15:38:15.715Z,50849.88
2023-04-29T15:43:22.860Z,50833.91
2023-04-29T15:48:28.517Z,50843.88
2023-04-29T15:53:32.666Z,50809.91
2023-04-29T15:58:38.288Z,50887.88
2023-04-29T16:03:42.748Z,50825.91
2023-04-29T16:08:47.207Z,50747.91
2023-04-29T16:13:52.986Z,50981.84
2023-04-29T16:18:57.549Z,51327.78
2023-04-29T16:24:01.753Z,51551.72
2023-04-29T16:29:07.937Z,51739.72
2023-04-29T16:34:12.904Z,51605.72
2023-04-29T16:39:17.171Z,51507.75
2023-04-29T16:44:22.935Z,51483.75
2023-04-29T16:49:28.064Z,51497.75
2023-04-29T16:54:32.868Z,51517.75
2023-04-29T16:59:38.713Z,51465.75
2023-04-29T17:04:43.668Z,51487.75
2023-04-29T17:09:48.812Z,51551.72
2023-04-29T17:14:54.683Z,51579.72
2023-04-29T17:19:59.090Z,51613.72
2023-04-29T17:25:03.935Z,51655.72
2023-04-29T17:30:10.961Z,51639.72
2023-04-29T17:35:15.354Z,51733.72
2023-04-29T17:40:19.872Z,51663.72
2023-04-29T17:45:25.529Z,51755.72
2023-04-29T17:50:29.726Z,51779.72
2023-04-29T17:55:34.202Z,51809.72
2023-04-29T18:00:41.919Z,51753.72
2023-04-29T18:05:47.602Z,51799.72
2023-04-29T18:10:51.773Z,51813.72
2023-04-29T18:15:57.544Z,51799.72
2023-04-29T18:21:01.814Z,51859.72
2023-04-29T18:26:06.378Z,51891.72
2023-04-29T18:31:12.085Z,51925.72
2023-04-29T18:36:16.938Z,51885.72
2023-04-29T18:41:21.656Z,51969.69
2023-04-29T18:46:29.790Z,51987.69
2023-04-29T18:51:33.951Z,51999.69
2023-04-29T18:56:40.168Z,52023.69
2023-04-29T19:01:46.287Z,52037.69
2023-04-29T19:06:50.804Z,52155.69
2023-04-29T19:11:54.942Z,52095.69
2023-04-29T19:17:00.701Z,52097.69
2023-04-29T19:22:05.682Z,52209.72
2023-04-29T19:27:10.002Z,52305.72
2023-04-29T19:32:15.730Z,52407.72
2023-04-29T19:37:19.956Z,52363.72
2023-04-29T19:42:24.388Z,52405.72
2023-04-29T19:47:29.993Z,52389.72
2023-04-29T19:52:34.160Z,52403.72
2023-04-29T19:57:39.078Z,52365.72
2023-04-29T20:02:45.220Z,52313.72
2023-04-29T20:07:49.995Z,52261.72
2023-04-29T20:12:54.736Z,52293.72
2023-04-29T20:18:00.396Z,52325.72
2023-04-29T20:23:04.819Z,52305.72
2023-04-29T20:28:10.378Z,52321.72
2023-04-29T20:33:16.196Z,52321.72
2023-04-29T20:38:20.533Z,52317.72
2023-04-29T20:43:26.070Z,52295.72
2023-04-29T20:48:31.710Z,52301.72
2023-04-29T20:53:36.397Z,52313.72
2023-04-29T20:58:40.561Z,52335.72
2023-04-29T21:03:46.144Z,52353.72
2023-04-29T21:08:50.508Z,52361.72
2023-04-29T21:13:54.885Z,52341.72
2023-04-29T21:19:00.729Z,52333.72
2023-04-29T21:24:05.394Z,52363.72
2023-04-29T21:29:09.795Z,52383.72
2023-04-29T21:34:15.378Z,52373.72
2023-04-29T21:39:19.653Z,52371.72
2023-04-29T21:44:23.963Z,52353.72
2023-04-29T21:49:29.637Z,52389.72
2023-04-29T21:54:34.063Z,52345.72
2023-04-29T21:59:38.210Z,52333.72
2023-04-29T22:04:44.118Z,52321.72
2023-04-29T22:09:49.956Z,52323.72
2023-04-29T22:14:54.333Z,52283.72
2023-04-29T22:19:59.840Z,52317.72
2023-04-29T22:25:04.839Z,52289.72
2023-04-29T22:30:10.358Z,52301.72
2023-04-29T22:35:16.210Z,52315.72
2023-04-29T22:40:20.781Z,52281.72
2023-04-29T22:45:24.946Z,52321.72
2023-04-29T22:50:30.896Z,52335.72
2023-04-29T22:55:34.928Z,52321.72
2023-04-29T23:00:39.037Z,52311.72
2023-04-29T23:05:44.577Z,52317.72
2023-04-29T23:10:49.890Z,52333.72
2023-04-29T23:15:57.708Z,52301.72
2023-04-29T23:21:03.808Z,52299.72
2023-04-29T23:26:08.269Z,52309.72
2023-04-29T23:31:12.975Z,52311.72
2023-04-29T23:36:18.674Z,52337.72
2023-04-29T23:41:22.946Z,52293.72
2023-04-29T23:46:27.272Z,52253.72
2023-04-29T23:51:33.359Z,52289.72
2023-04-29T23:56:37.788Z,52297.72
